Mississippi Star — 9HA2441 — position and weather

sailwx.info

Track history (hours):
 
Tides and Currents Weather Stations Pressure Air Temp Water Temp Dewpoint Dewpoint Depression Visibility Wind Speed Wind Dir Waves Ship Positions

Mississippi Star

Last reported at 2017-May-24 16:36 UTC. Time now 2017-May-25 12:39 UTC.
Position N 55°23' W 005°02'.

Length 128 m; draft 8.3 m.

Type: Ship. MMSI: 248621000.

Date/timePositionNaut miles runAvg speedWind from/ knotsBaromVisibWave heightAir tempDewpointWater temp
2017-May-24 16:36N 55°23' W 005°02'2310.5
2017-May-24 14:24N 55°13' W 005°39'8 8.7
2017-May-24 13:29N 55°14' W 005°53'4 7.8
2017-May-24 12:57N 55°16' W 005°59'3 7.2
2017-May-24 12:30N 55°18' W 006°03'5 8.3
2017-May-24 11:52N 55°21' W 006°10'4 9.9
2017-May-24 11:30N 55°23' W 006°16'5 9.5
2017-May-24 11:00N 55°24' W 006°24'510.3
2017-May-24 10:30N 55°27' W 006°31'611.3
2017-May-24 10:00N 55°31' W 006°38'612.4
2017-May-24 09:30N 55°35' W 006°46'612.8
2017-May-24 09:00N 55°41' W 006°52'612.6
2017-May-24 08:30N 55°46' W 006°59'196 9.6
2017-May-23 12:01N 58°44' W 004°27'012.0
2017-May-23 11:59N 58°44' W 004°26'612.3
2017-May-23 11:30N 58°44' W 004°14'612.2
2017-May-23 11:00N 58°43' W 004°03'611.6
2017-May-23 10:30N 58°43' W 003°51'611.7
2017-May-23 10:00N 58°43' W 003°40'611.7
2017-May-23 09:30N 58°43' W 003°29'611.4
2017-May-23 09:00N 58°43' W 003°18'510.7
2017-May-23 08:30N 58°43' W 003°08'4 7.8
2017-May-23 08:00N 58°41' W 003°01'4 7.3
2017-May-23 07:30N 58°38' W 002°56'4 7.6
2017-May-23 07:00N 58°37' W 002°49'510.4
2017-May-23 06:30N 58°37' W 002°39'17811.4
2017-May-22 14:54N 58°03' E 002°53'1111.9
2017-May-22 14:00N 57°60' E 003°12'811.9
2017-May-22 13:22N 57°57' E 003°26'611.8
2017-May-22 12:54N 57°55' E 003°36'7611.4
2017-May-22 06:14N 57°36' E 005°54'311.3
2017-May-22 05:57N 57°36' E 005°60'1611.7
2017-May-22 04:35N 57°36' E 006°30'111.0
2017-May-22 04:30N 57°36' E 006°31'611.9
2017-May-22 03:59N 57°37' E 006°43'3611.4
2017-May-22 00:48N 57°36' E 007°51'511.5
2017-May-22 00:22N 57°36' E 007°60'911.2
2017-May-21 23:33N 57°39' E 008°16'111.5
2017-May-21 23:28N 57°39' E 008°18'611.6
2017-May-21 22:57N 57°41' E 008°28'1111.6
2017-May-21 22:03N 57°45' E 008°47'011.7
2017-May-21 22:00N 57°45' E 008°48'611.7
2017-May-21 21:30N 57°47' E 008°58'711.4
2017-May-21 20:52N 57°50' E 009°10'411.2
2017-May-21 20:29N 57°52' E 009°18'510.9
2017-May-21 19:59N 57°54' E 009°28'1110.6
2017-May-21 18:56N 57°58' E 009°47'510.6
2017-May-21 18:29N 57°59' E 009°56'810.5
2017-May-21 17:43N 58°02' E 010°10'210.4
2017-May-21 17:30N 58°03' E 010°14'510.4
2017-May-21 17:00N 58°05' E 010°23'510.4
2017-May-21 16:30N 58°07' E 010°32'510.5
2017-May-21 16:00N 58°09' E 010°42'510.6
2017-May-21 15:30N 58°11' E 010°51'611.0
2017-May-21 15:00N 58°13' E 011°00'1010.4
2017-May-21 14:00N 58°17' E 011°18'510.9
2017-May-21 13:30N 58°21' E 011°25'1 0.0
2017-May-20 07:53N 58°21' E 011°26'0 1.2
2017-May-20 07:29N 58°21' E 011°25'4 8.2
2017-May-20 07:00N 58°19' E 011°20'510.6
2017-May-20 06:29N 58°14' E 011°15'1 0.8
2017-May-20 04:59N 58°13' E 011°16'0 0.0
2017-May-20 04:29N 58°13' E 011°16'0 0.0
2017-May-20 03:53N 58°13' E 011°16'0 0.0
2017-May-20 03:26N 58°13' E 011°16'0 0.0
2017-May-20 02:53N 58°12' E 011°16'0 0.0
2017-May-20 00:20N 58°12' E 011°16'0 0.0
2017-May-19 22:26N 58°13' E 011°16'0 0.0
2017-May-19 21:47N 58°13' E 011°16'0 0.0
2017-May-19 18:50N 58°12' E 011°16'0 0.0
2017-May-19 18:23N 58°12' E 011°16'0 0.0
2017-May-19 17:40N 58°12' E 011°16'0 0.0
2017-May-19 17:16N 58°12' E 011°16'0 0.0
2017-May-19 16:55N 58°12' E 011°16'0 0.0
2017-May-19 16:29N 58°12' E 011°16'0 0.0
2017-May-19 15:56N 58°12' E 011°16'0 0.0
2017-May-19 15:23N 58°12' E 011°16'0 0.0
2017-May-19 14:58N 58°12' E 011°16'0 0.1
2017-May-19 13:59N 58°12' E 011°16'0 0.0
2017-May-19 13:28N 58°12' E 011°16'0 0.0
2017-May-19 12:50N 58°12' E 011°16'0 0.0
2017-May-19 12:28N 58°12' E 011°16'0 0.1
2017-May-19 11:58N 58°12' E 011°16'0 0.1
2017-May-19 11:28N 58°12' E 011°16'0 0.0
2017-May-19 10:46N 58°13' E 011°16'0 0.0
2017-May-19 10:28N 58°13' E 011°16'0 0.0
2017-May-19 09:59N 58°13' E 011°16'0 0.0
2017-May-19 09:28N 58°13' E 011°16'0 0.0
2017-May-19 08:58N 58°13' E 011°16'0 0.0
2017-May-19 08:22N 58°13' E 011°16'0 0.0
2017-May-19 07:58N 58°13' E 011°16'0 0.0
2017-May-19 07:29N 58°13' E 011°16'0 0.1
2017-May-19 06:53N 58°13' E 011°16'0 0.0
2017-May-19 06:28N 58°13' E 011°16'0 0.0
2017-May-19 05:52N 58°13' E 011°16'0 0.1
2017-May-19 04:19N 58°13' E 011°16'0 0.0
2017-May-19 03:28N 58°13' E 011°16'0 0.2
2017-May-19 02:52N 58°12' E 011°16'0 0.1
2017-May-19 02:19N 58°13' E 011°16'0 0.0
2017-May-19 01:55N 58°13' E 011°16'0 0.0
2017-May-19 00:52N 58°13' E 011°16'0 0.0
2017-May-19 00:19N 58°13' E 011°16'0 0.0
2017-May-18 23:25N 58°13' E 011°16'0 0.0
2017-May-18 22:58N 58°13' E 011°16'0 0.0
2017-May-18 22:25N 58°13' E 011°16'0 0.0
2017-May-18 21:16N 58°13' E 011°16'0 0.0
2017-May-18 19:34N 58°13' E 011°16'0 0.0
2017-May-18 18:25N 58°13' E 011°16'0 0.0
2017-May-18 14:58N 58°13' E 011°16'0 0.0
2017-May-18 13:19N 58°13' E 011°16'0 0.0
2017-May-18 12:55N 58°13' E 011°16'0 0.0
2017-May-18 12:28N 58°13' E 011°16'0 0.0
2017-May-18 11:10N 58°13' E 011°16'0 0.0
2017-May-18 10:52N 58°13' E 011°16'0 0.0
2017-May-18 10:28N 58°13' E 011°16'0 0.0
2017-May-18 09:16N 58°13' E 011°16'0 0.0
2017-May-18 08:46N 58°13' E 011°16'0 0.0
2017-May-18 08:19N 58°13' E 011°16'0 0.0
2017-May-18 06:37N 58°13' E 011°16'0 0.1
2017-May-18 06:28N 58°13' E 011°16'0 0.0
2017-May-18 05:49N 58°13' E 011°16'0 0.0
2017-May-18 05:01N 58°13' E 011°16'0 0.1
2017-May-18 04:55N 58°13' E 011°16'0 0.0
2017-May-18 04:25N 58°13' E 011°16'0 0.0
2017-May-18 03:58N 58°13' E 011°16'0 0.0
2017-May-18 03:28N 58°13' E 011°16'0 0.0
2017-May-18 01:46N 58°13' E 011°16'0 0.0
2017-May-18 01:25N 58°13' E 011°16'0 0.0
2017-May-17 23:19N 58°13' E 011°16'0 0.0
2017-May-17 22:55N 58°13' E 011°16'0 0.0
2017-May-17 18:25N 58°13' E 011°16'1 1.3
2017-May-17 18:00N 58°12' E 011°15'510.3
2017-May-17 17:30N 58°07' E 011°14'714.7
2017-May-17 17:00N 57°60' E 011°16'714.3
2017-May-17 16:30N 57°53' E 011°19'713.5
2017-May-17 15:59N 57°46' E 011°21'613.0
2017-May-17 15:30N 57°40' E 011°23'612.5
2017-May-17 15:00N 57°34' E 011°24'612.5
2017-May-17 14:30N 57°27' E 011°27'1312.7
2017-May-17 13:30N 57°15' E 011°35'612.8
2017-May-17 13:00N 57°09' E 011°38'27 0.6
2017-May-15 17:19N 56°43' E 011°50'1611.1
2017-May-15 15:54N 56°59' E 011°43'511.3
2017-May-15 15:28N 57°03' E 011°40'511.5
2017-May-15 15:00N 57°08' E 011°37'711.5
2017-May-15 14:24N 57°15' E 011°33'1111.8
2017-May-15 13:30N 57°25' E 011°26'611.6
2017-May-15 13:00N 57°30' E 011°20'611.2
2017-May-15 12:30N 57°33' E 011°12'510.9
2017-May-15 12:00N 57°37' E 011°05'611.0
2017-May-15 11:30N 57°41' E 010°57'611.3
2017-May-15 10:59N 57°45' E 010°49'611.7
2017-May-15 10:30N 57°49' E 010°41'611.8
2017-May-15 10:00N 57°49' E 010°30'611.8
2017-May-15 09:29N 57°49' E 010°19'2311.7
2017-May-15 07:32N 57°43' E 009°38'212.0
2017-May-15 07:23N 57°42' E 009°35'611.6
2017-May-15 06:50N 57°39' E 009°24'412.2
2017-May-15 06:30N 57°37' E 009°18'14111.8
2017-May-14 18:35N 55°45' E 006°42'111.9
2017-May-14 18:30N 55°44' E 006°41'811.9
2017-May-14 17:48N 55°37' E 006°34'  
Track history (hours):
 
Tides and Currents Weather Stations Pressure Air Temp Water Temp Dewpoint Dewpoint Depression Visibility Wind Speed Wind Dir Waves Ship Positions

Mississippi Star

Last reported at 2017-May-24 16:36 UTC. Time now 2017-May-25 12:39 UTC.
Position N 55°23' W 005°02'.

Length 128 m; draft 8.3 m.

Type: Ship. MMSI: 248621000.

Date/timePositionNaut miles runAvg speedWind from/ knotsBaromVisibWave heightAir tempDewpointWater temp
2017-May-24 16:36N 55°23' W 005°02'2310.5
2017-May-24 14:24N 55°13' W 005°39'8 8.7
2017-May-24 13:29N 55°14' W 005°53'4 7.8
2017-May-24 12:57N 55°16' W 005°59'3 7.2
2017-May-24 12:30N 55°18' W 006°03'5 8.3
2017-May-24 11:52N 55°21' W 006°10'4 9.9
2017-May-24 11:30N 55°23' W 006°16'5 9.5
2017-May-24 11:00N 55°24' W 006°24'510.3
2017-May-24 10:30N 55°27' W 006°31'611.3
2017-May-24 10:00N 55°31' W 006°38'612.4
2017-May-24 09:30N 55°35' W 006°46'612.8
2017-May-24 09:00N 55°41' W 006°52'612.6
2017-May-24 08:30N 55°46' W 006°59'196 9.6
2017-May-23 12:01N 58°44' W 004°27'012.0
2017-May-23 11:59N 58°44' W 004°26'612.3
2017-May-23 11:30N 58°44' W 004°14'612.2
2017-May-23 11:00N 58°43' W 004°03'611.6
2017-May-23 10:30N 58°43' W 003°51'611.7
2017-May-23 10:00N 58°43' W 003°40'611.7
2017-May-23 09:30N 58°43' W 003°29'611.4
2017-May-23 09:00N 58°43' W 003°18'510.7
2017-May-23 08:30N 58°43' W 003°08'4 7.8
2017-May-23 08:00N 58°41' W 003°01'4 7.3
2017-May-23 07:30N 58°38' W 002°56'4 7.6
2017-May-23 07:00N 58°37' W 002°49'510.4
2017-May-23 06:30N 58°37' W 002°39'17811.4
2017-May-22 14:54N 58°03' E 002°53'1111.9
2017-May-22 14:00N 57°60' E 003°12'811.9
2017-May-22 13:22N 57°57' E 003°26'611.8
2017-May-22 12:54N 57°55' E 003°36'7611.4
2017-May-22 06:14N 57°36' E 005°54'311.3
2017-May-22 05:57N 57°36' E 005°60'1611.7
2017-May-22 04:35N 57°36' E 006°30'111.0
2017-May-22 04:30N 57°36' E 006°31'611.9
2017-May-22 03:59N 57°37' E 006°43'3611.4
2017-May-22 00:48N 57°36' E 007°51'511.5
2017-May-22 00:22N 57°36' E 007°60'911.2
2017-May-21 23:33N 57°39' E 008°16'111.5
2017-May-21 23:28N 57°39' E 008°18'611.6
2017-May-21 22:57N 57°41' E 008°28'1111.6
2017-May-21 22:03N 57°45' E 008°47'011.7
2017-May-21 22:00N 57°45' E 008°48'611.7
2017-May-21 21:30N 57°47' E 008°58'711.4
2017-May-21 20:52N 57°50' E 009°10'411.2
2017-May-21 20:29N 57°52' E 009°18'510.9
2017-May-21 19:59N 57°54' E 009°28'1110.6
2017-May-21 18:56N 57°58' E 009°47'510.6
2017-May-21 18:29N 57°59' E 009°56'810.5
2017-May-21 17:43N 58°02' E 010°10'210.4
2017-May-21 17:30N 58°03' E 010°14'510.4
2017-May-21 17:00N 58°05' E 010°23'510.4
2017-May-21 16:30N 58°07' E 010°32'510.5
2017-May-21 16:00N 58°09' E 010°42'510.6
2017-May-21 15:30N 58°11' E 010°51'611.0
2017-May-21 15:00N 58°13' E 011°00'1010.4
2017-May-21 14:00N 58°17' E 011°18'510.9
2017-May-21 13:30N 58°21' E 011°25'1 0.0
2017-May-20 07:53N 58°21' E 011°26'0 1.2
2017-May-20 07:29N 58°21' E 011°25'4 8.2
2017-May-20 07:00N 58°19' E 011°20'510.6
2017-May-20 06:29N 58°14' E 011°15'1 0.8
2017-May-20 04:59N 58°13' E 011°16'0 0.0
2017-May-20 04:29N 58°13' E 011°16'0 0.0
2017-May-20 03:53N 58°13' E 011°16'0 0.0
2017-May-20 03:26N 58°13' E 011°16'0 0.0
2017-May-20 02:53N 58°12' E 011°16'0 0.0
2017-May-20 00:20N 58°12' E 011°16'0 0.0
2017-May-19 22:26N 58°13' E 011°16'0 0.0
2017-May-19 21:47N 58°13' E 011°16'0 0.0
2017-May-19 18:50N 58°12' E 011°16'0 0.0
2017-May-19 18:23N 58°12' E 011°16'0 0.0
2017-May-19 17:40N 58°12' E 011°16'0 0.0
2017-May-19 17:16N 58°12' E 011°16'0 0.0
2017-May-19 16:55N 58°12' E 011°16'0 0.0
2017-May-19 16:29N 58°12' E 011°16'0 0.0
2017-May-19 15:56N 58°12' E 011°16'0 0.0
2017-May-19 15:23N 58°12' E 011°16'0 0.0
2017-May-19 14:58N 58°12' E 011°16'0 0.1
2017-May-19 13:59N 58°12' E 011°16'0 0.0
2017-May-19 13:28N 58°12' E 011°16'0 0.0
2017-May-19 12:50N 58°12' E 011°16'0 0.0
2017-May-19 12:28N 58°12' E 011°16'0 0.1
2017-May-19 11:58N 58°12' E 011°16'0 0.1
2017-May-19 11:28N 58°12' E 011°16'0 0.0
2017-May-19 10:46N 58°13' E 011°16'0 0.0
2017-May-19 10:28N 58°13' E 011°16'0 0.0
2017-May-19 09:59N 58°13' E 011°16'0 0.0
2017-May-19 09:28N 58°13' E 011°16'0 0.0
2017-May-19 08:58N 58°13' E 011°16'0 0.0
2017-May-19 08:22N 58°13' E 011°16'0 0.0
2017-May-19 07:58N 58°13' E 011°16'0 0.0
2017-May-19 07:29N 58°13' E 011°16'0 0.1
2017-May-19 06:53N 58°13' E 011°16'0 0.0
2017-May-19 06:28N 58°13' E 011°16'0 0.0
2017-May-19 05:52N 58°13' E 011°16'0 0.1
2017-May-19 04:19N 58°13' E 011°16'0 0.0
2017-May-19 03:28N 58°13' E 011°16'0 0.2
2017-May-19 02:52N 58°12' E 011°16'0 0.1
2017-May-19 02:19N 58°13' E 011°16'0 0.0
2017-May-19 01:55N 58°13' E 011°16'0 0.0
2017-May-19 00:52N 58°13' E 011°16'0 0.0
2017-May-19 00:19N 58°13' E 011°16'0 0.0
2017-May-18 23:25N 58°13' E 011°16'0 0.0
2017-May-18 22:58N 58°13' E 011°16'0 0.0
2017-May-18 22:25N 58°13' E 011°16'0 0.0
2017-May-18 21:16N 58°13' E 011°16'0 0.0
2017-May-18 19:34N 58°13' E 011°16'0 0.0
2017-May-18 18:25N 58°13' E 011°16'0 0.0
2017-May-18 14:58N 58°13' E 011°16'0 0.0
2017-May-18 13:19N 58°13' E 011°16'0 0.0
2017-May-18 12:55N 58°13' E 011°16'0 0.0
2017-May-18 12:28N 58°13' E 011°16'0 0.0
2017-May-18 11:10N 58°13' E 011°16'0 0.0
2017-May-18 10:52N 58°13' E 011°16'0 0.0
2017-May-18 10:28N 58°13' E 011°16'0 0.0
2017-May-18 09:16N 58°13' E 011°16'0 0.0
2017-May-18 08:46N 58°13' E 011°16'0 0.0
2017-May-18 08:19N 58°13' E 011°16'0 0.0
2017-May-18 06:37N 58°13' E 011°16'0 0.1
2017-May-18 06:28N 58°13' E 011°16'0 0.0
2017-May-18 05:49N 58°13' E 011°16'0 0.0
2017-May-18 05:01N 58°13' E 011°16'0 0.1
2017-May-18 04:55N 58°13' E 011°16'0 0.0
2017-May-18 04:25N 58°13' E 011°16'0 0.0
2017-May-18 03:58N 58°13' E 011°16'0 0.0
2017-May-18 03:28N 58°13' E 011°16'0 0.0
2017-May-18 01:46N 58°13' E 011°16'0 0.0
2017-May-18 01:25N 58°13' E 011°16'0 0.0
2017-May-17 23:19N 58°13' E 011°16'0 0.0
2017-May-17 22:55N 58°13' E 011°16'0 0.0
2017-May-17 18:25N 58°13' E 011°16'1 1.3
2017-May-17 18:00N 58°12' E 011°15'510.3
2017-May-17 17:30N 58°07' E 011°14'714.7
2017-May-17 17:00N 57°60' E 011°16'714.3
2017-May-17 16:30N 57°53' E 011°19'713.5
2017-May-17 15:59N 57°46' E 011°21'613.0
2017-May-17 15:30N 57°40' E 011°23'612.5
2017-May-17 15:00N 57°34' E 011°24'612.5
2017-May-17 14:30N 57°27' E 011°27'1312.7
2017-May-17 13:30N 57°15' E 011°35'612.8
2017-May-17 13:00N 57°09' E 011°38'27 0.6
2017-May-15 17:19N 56°43' E 011°50'1611.1
2017-May-15 15:54N 56°59' E 011°43'511.3
2017-May-15 15:28N 57°03' E 011°40'511.5
2017-May-15 15:00N 57°08' E 011°37'711.5
2017-May-15 14:24N 57°15' E 011°33'1111.8
2017-May-15 13:30N 57°25' E 011°26'611.6
2017-May-15 13:00N 57°30' E 011°20'611.2
2017-May-15 12:30N 57°33' E 011°12'510.9
2017-May-15 12:00N 57°37' E 011°05'611.0
2017-May-15 11:30N 57°41' E 010°57'611.3
2017-May-15 10:59N 57°45' E 010°49'611.7
2017-May-15 10:30N 57°49' E 010°41'611.8
2017-May-15 10:00N 57°49' E 010°30'611.8
2017-May-15 09:29N 57°49' E 010°19'2311.7
2017-May-15 07:32N 57°43' E 009°38'212.0
2017-May-15 07:23N 57°42' E 009°35'611.6
2017-May-15 06:50N 57°39' E 009°24'412.2
2017-May-15 06:30N 57°37' E 009°18'14111.8
2017-May-14 18:35N 55°45' E 006°42'111.9
2017-May-14 18:30N 55°44' E 006°41'811.9
2017-May-14 17:48N 55°37' E 006°34'  

Dump ship's entire track history